Time;durP1;ratioP1;P1;durP2;ratioP2;P2;SDS_P1;SDS_P2;PMS_P1;PMS_P2;Temp;Humidity;BMP_temperature;BMP_pressure;BME280_temperature;BME280_humidity;BME280_pressure;Samples;Min_cycle;Max_cycle;Signal;HPM_P1;HPM_P2
2023/10/16 00:00:29;;;;;;;3.63;1.52;;;;;;;11.78;100.00;94540.06;5016371;28;20026;-78
2023/10/16 00:03:02;;;;;;;4.93;1.55;;;;;;;11.72;100.00;94540.81;5004984;28;20033;-77
2023/10/16 00:05:38;;;;;;;3.47;2.35;;;;;;;11.68;100.00;94547.34;5016274;28;20036;-78
2023/10/16 00:08:06;;;;;;;1.55;1.30;;;;;;;11.68;100.00;94534.38;5012569;28;20045;-78
2023/10/16 00:10:35;;;;;;;3.45;1.65;;;;;;;11.58;100.00;94532.09;4979048;28;20069;-76
2023/10/16 00:13:04;;;;;;;3.15;1.65;;;;;;;11.50;100.00;94532.22;5001042;28;20486;-78
2023/10/16 00:15:40;;;;;;;1.60;1.50;;;;;;;11.59;100.00;94542.25;5000237;28;20037;-77
2023/10/16 00:18:13;;;;;;;3.63;1.48;;;;;;;11.54;100.00;94561.97;4998273;28;20458;-76
2023/10/16 00:20:42;;;;;;;1.23;1.13;;;;;;;11.49;100.00;94549.56;4999125;28;20022;-80
2023/10/16 00:23:11;;;;;;;1.40;1.30;;;;;;;11.62;100.00;94554.09;5000020;28;20467;-79
2023/10/16 00:25:38;;;;;;;5.00;1.05;;;;;;;11.47;100.00;94551.53;5022303;28;20034;-78
2023/10/16 00:28:08;;;;;;;1.17;1.08;;;;;;;11.68;100.00;94557.72;4984092;28;20021;-79
2023/10/16 00:30:37;;;;;;;4.05;1.08;;;;;;;11.52;100.00;94563.97;4996848;28;20030;-77
2023/10/16 00:33:10;;;;;;;3.55;1.10;;;;;;;11.46;100.00;94564.72;4996967;28;20030;-78
2023/10/16 00:35:37;;;;;;;2.17;1.00;;;;;;;11.52;100.00;94569.97;5016857;28;20034;-78
2023/10/16 00:38:03;;;;;;;1.77;1.08;;;;;;;11.63;100.00;94571.22;5027046;28;20048;-79
2023/10/16 00:40:32;;;;;;;0.90;0.90;;;;;;;11.62;100.00;94582.63;5000186;28;20033;-79
2023/10/16 00:43:19;;;;;;;2.40;0.67;;;;;;;11.49;100.00;94593.63;5019241;28;20029;-79
2023/10/16 00:45:48;;;;;;;3.90;1.20;;;;;;;11.32;100.00;94599.25;5026394;28;20401;-79
2023/10/16 00:48:16;;;;;;;2.20;1.10;;;;;;;11.33;100.00;94608.66;5001578;28;20033;-79
2023/10/16 00:50:48;;;;;;;2.47;0.73;;;;;;;11.38;100.00;94604.50;5000733;28;20083;-77
2023/10/16 00:53:14;;;;;;;0.80;0.80;;;;;;;11.35;100.00;94617.84;4998655;28;20125;-78
2023/10/16 00:55:39;;;;;;;0.82;0.82;;;;;;;11.43;100.00;94611.75;4997203;28;20041;-77
2023/10/16 00:58:08;;;;;;;1.48;0.90;;;;;;;11.32;100.00;94622.59;5016856;28;20439;-79
2023/10/16 01:00:37;;;;;;;0.80;0.80;;;;;;;11.35;100.00;94641.19;4999266;28;20078;-78
2023/10/16 01:03:05;;;;;;;0.93;0.80;;;;;;;11.40;100.00;94638.81;5002540;28;20486;-77
2023/10/16 01:05:33;;;;;;;0.80;0.80;;;;;;;11.51;100.00;94640.16;5005956;28;20028;-79
2023/10/16 01:08:00;;;;;;;1.65;1.20;;;;;;;11.41;100.00;94630.06;5013178;28;20541;-78
2023/10/16 01:10:27;;;;;;;2.00;1.13;;;;;;;11.32;100.00;94636.38;4996276;28;20026;-80
2023/10/16 01:12:55;;;;;;;4.43;0.88;;;;;;;11.26;100.00;94641.47;5013786;28;20089;-80
2023/10/16 01:15:22;;;;;;;9.35;1.30;;;;;;;11.25;100.00;94619.94;5010583;28;20037;-77
2023/10/16 01:17:47;;;;;;;1.10;1.10;;;;;;;11.23;100.00;94632.28;4991790;28;20030;-78
2023/10/16 01:20:15;;;;;;;2.67;1.02;;;;;;;11.17;100.00;94647.75;4998354;28;20045;-77
2023/10/16 01:22:42;;;;;;;2.05;1.00;;;;;;;11.24;100.00;94636.47;5019811;28;20026;-79
2023/10/16 01:25:08;;;;;;;1.05;0.90;;;;;;;11.30;100.00;94646.09;5016078;28;20025;-79
2023/10/16 01:27:38;;;;;;;2.55;1.08;;;;;;;11.13;100.00;94657.69;4994361;28;20042;-79
2023/10/16 01:30:07;;;;;;;1.17;1.08;;;;;;;11.14;100.00;94656.69;4992652;28;20121;-77
2023/10/16 01:32:33;;;;;;;;;;;;;;;11.20;100.00;94662.94;5009921;28;20042;-78
2023/10/16 01:35:01;;;;;;;1.55;1.40;;;;;;;11.04;100.00;94654.38;4995345;28;19913;-78
2023/10/16 01:37:27;;;;;;;3.92;1.60;;;;;;;11.16;100.00;94646.94;4997613;28;20033;-78
2023/10/16 01:40:11;;;;;;;5.38;1.63;;;;;;;11.01;100.00;94667.69;5013154;28;20029;-79
2023/10/16 01:42:37;;;;;;;4.10;2.10;;;;;;;11.08;100.00;94675.53;5012533;28;20033;-78
2023/10/16 01:45:04;;;;;;;3.13;2.58;;;;;;;10.92;100.00;94688.69;4995139;28;20029;-77
2023/10/16 01:47:30;;;;;;;7.70;3.15;;;;;;;10.87;100.00;94697.00;5010552;28;20035;-78
2023/10/16 01:49:55;;;;;;;18.42;4.10;;;;;;;10.76;100.00;94702.63;4992322;28;20034;-79
2023/10/16 01:52:22;;;;;;;5.70;4.13;;;;;;;10.79;100.00;94707.44;5008764;28;20423;-78
2023/10/16 01:54:48;;;;;;;5.47;4.60;;;;;;;10.71;100.00;94717.91;5007222;28;20084;-78
2023/10/16 01:57:14;;;;;;;6.47;5.20;;;;;;;10.68;100.00;94707.09;5011057;28;20069;-80
2023/10/16 01:59:42;;;;;;;6.25;5.47;;;;;;;10.77;100.00;94717.19;4995681;28;20049;-78
2023/10/16 02:02:09;;;;;;;14.80;5.75;;;;;;;10.48;100.00;94724.91;4996023;28;20025;-77
2023/10/16 02:04:36;;;;;;;5.88;5.47;;;;;;;10.61;100.00;94714.75;4997097;28;20479;-80
2023/10/16 02:07:01;;;;;;;6.30;5.70;;;;;;;10.53;100.00;94712.25;5014371;28;20064;-77
2023/10/16 02:09:27;;;;;;;6.90;6.40;;;;;;;10.57;100.00;94723.84;5013543;28;20030;-78
2023/10/16 02:11:59;;;;;;;6.60;6.10;;;;;;;10.43;100.00;94728.03;5005022;28;20138;-76
2023/10/16 02:14:25;;;;;;;7.68;6.68;;;;;;;10.45;100.00;94717.50;5012686;28;20029;-78
2023/10/16 02:16:51;;;;;;;9.82;7.65;;;;;;;10.34;100.00;94723.13;5012861;28;20519;-78
2023/10/16 02:19:17;;;;;;;13.35;8.30;;;;;;;10.14;100.00;94716.81;4995799;28;20033;-81
2023/10/16 02:21:43;;;;;;;9.45;8.48;;;;;;;10.27;100.00;94722.19;5014084;28;20034;-79
2023/10/16 02:24:11;;;;;;;8.80;7.93;;;;;;;10.24;100.00;94722.53;4999090;28;20030;-76
2023/10/16 02:26:45;;;;;;;9.00;8.30;;;;;;;10.10;100.00;94736.19;4997408;28;20026;-79
2023/10/16 02:29:12;;;;;;;12.93;8.43;;;;;;;10.24;100.00;94731.09;5013635;28;20026;-78
2023/10/16 02:31:39;;;;;;;10.40;8.60;;;;;;;10.17;100.00;94734.56;5010908;28;20037;-79
2023/10/16 02:34:13;;;;;;;9.18;8.48;;;;;;;10.19;100.00;94728.22;5010070;28;20037;-76
2023/10/16 02:36:39;;;;;;;9.48;8.60;;;;;;;10.16;100.00;94732.94;5007349;28;20052;-78
2023/10/16 02:39:08;;;;;;;8.35;7.65;;;;;;;10.19;100.00;94740.34;5011579;28;20110;-76
2023/10/16 02:41:34;;;;;;;8.57;7.88;;;;;;;10.19;100.00;94758.47;5031977;28;20045;-78
2023/10/16 02:43:59;;;;;;;8.70;7.70;;;;;;;10.25;100.00;94765.53;5001043;28;20029;-80
2023/10/16 02:46:25;;;;;;;9.48;8.57;;;;;;;10.13;100.00;94761.72;5001277;28;20034;-80
2023/10/16 02:48:53;;;;;;;9.02;8.27;;;;;;;10.11;100.00;94766.28;5012353;28;20495;-79
2023/10/16 02:51:18;;;;;;;9.05;8.20;;;;;;;10.16;100.00;94764.00;5015774;28;20033;-78
2023/10/16 02:53:45;;;;;;;7.68;7.13;;;;;;;10.28;100.00;94765.19;5013148;28;20058;-78
2023/10/16 02:56:17;;;;;;;7.88;7.38;;;;;;;10.13;100.00;94769.50;5017760;28;20022;-79
2023/10/16 02:58:43;;;;;;;7.93;7.22;;;;;;;10.16;100.00;94767.41;5021397;28;20033;-80
2023/10/16 03:01:13;;;;;;;11.73;7.15;;;;;;;10.05;100.00;94772.91;5004045;28;20017;-80
2023/10/16 03:03:43;;;;;;;7.60;7.03;;;;;;;10.05;100.00;94780.69;5001987;28;20415;-80
2023/10/16 03:06:09;;;;;;;7.00;6.35;;;;;;;10.08;100.00;94770.81;4998112;28;20037;-78
2023/10/16 03:08:36;;;;;;;7.35;6.75;;;;;;;10.14;100.00;94759.00;4996442;28;20030;-78
2023/10/16 03:11:07;;;;;;;7.32;6.63;;;;;;;10.20;100.00;94765.28;5000213;28;20048;-79
2023/10/16 03:13:56;;;;;;;6.70;6.20;;;;;;;10.21;100.00;94772.06;5003536;28;20636;-78
2023/10/16 03:16:26;;;;;;;7.03;6.53;;;;;;;10.10;100.00;94769.84;4993464;28;20077;-81
2023/10/16 03:19:02;;;;;;;6.68;6.18;;;;;;;10.11;100.00;94774.03;4988929;28;20072;-79
2023/10/16 03:21:28;;;;;;;7.45;6.75;;;;;;;10.23;100.00;94788.22;4998145;28;20458;-79
2023/10/16 03:23:54;;;;;;;6.93;6.30;;;;;;;10.24;100.00;94792.41;5016218;28;20025;-79
2023/10/16 03:26:30;;;;;;;6.88;6.32;;;;;;;10.30;100.00;94795.13;5009190;28;20021;-81
2023/10/16 03:28:56;;;;;;;6.93;6.43;;;;;;;10.31;100.00;94786.38;5015190;28;20049;-81
2023/10/16 03:31:23;;;;;;;6.68;6.18;;;;;;;10.19;100.00;94779.19;5027347;28;20018;-78
2023/10/16 03:33:49;;;;;;;7.18;6.55;;;;;;;10.07;100.00;94782.16;5023306;28;20030;-78
2023/10/16 03:36:15;;;;;;;7.68;6.88;;;;;;;10.16;100.00;94779.53;4997319;28;20368;-77
2023/10/16 03:38:41;;;;;;;6.85;6.20;;;;;;;10.12;100.00;94791.16;5017822;28;20061;-78
2023/10/16 03:43:57;;;;;;;6.63;6.07;;;;;;;9.96;100.00;94790.28;5014840;28;20038;-80
2023/10/16 03:46:26;;;;;;;9.27;6.30;;;;;;;9.99;100.00;94791.72;4990464;28;20594;-80
2023/10/16 03:48:52;;;;;;;8.82;5.80;;;;;;;9.82;100.00;94805.75;5006068;28;20041;-78
2023/10/16 03:51:17;;;;;;;9.57;6.32;;;;;;;9.74;100.00;94798.00;4988793;28;20430;-80
2023/10/16 03:53:44;;;;;;;6.95;6.35;;;;;;;9.83;100.00;94810.72;5010045;28;20843;-79
2023/10/16 03:56:11;;;;;;;8.57;6.40;;;;;;;9.81;100.00;94799.75;5005845;28;20439;-77
2023/10/16 03:58:44;;;;;;;6.55;6.05;;;;;;;9.94;100.00;94810.34;5000137;28;20325;-79
2023/10/16 04:01:23;;;;;;;6.90;6.40;;;;;;;9.87;100.00;94817.19;5018030;28;20033;-79
2023/10/16 04:03:50;;;;;;;10.48;5.45;;;;;;;9.74;100.00;94813.53;5019253;28;20057;-80
2023/10/16 04:06:20;;;;;;;6.32;5.78;;;;;;;9.84;100.00;94803.78;5024077;28;20010;-77
2023/10/16 04:08:50;;;;;;;6.30;5.70;;;;;;;9.82;100.00;94814.31;5005787;28;20052;-77
2023/10/16 04:11:15;;;;;;;;;;;;;;;9.93;100.00;94824.25;5020096;28;20042;-80
2023/10/16 04:13:49;;;;;;;5.88;5.38;;;;;;;9.81;100.00;94817.88;5002034;28;19963;-77
2023/10/16 04:16:35;;;;;;;6.82;6.22;;;;;;;9.83;100.00;94825.44;5028499;28;20029;-79
2023/10/16 04:19:52;;;;;;;7.03;5.55;;;;;;;9.80;100.00;94818.81;5024573;28;20033;-79
2023/10/16 04:21:53;;;;;;;6.47;5.97;;;;;;;9.77;100.00;94802.84;5008024;28;20088;-79
2023/10/16 04:26:57;;;;;;;6.50;6.03;;;;;;;9.70;100.00;94828.56;5004793;28;20065;-80
2023/10/16 04:29:28;;;;;;;7.40;6.70;;;;;;;9.69;100.00;94839.91;5006408;28;20053;-80
2023/10/16 04:45:38;;;;;;;7.68;6.88;;;;;;;9.59;100.00;94866.91;5016471;28;20076;-79
2023/10/16 04:53:08;;;;;;;7.50;6.90;;;;;;;9.78;100.00;94884.63;5035637;28;20053;-80
2023/10/16 05:03:35;;;;;;;7.03;6.32;;;;;;;9.68;100.00;94899.53;5023420;28;20068;-78
2023/10/16 05:11:36;;;;;;;6.38;5.72;;;;;;;9.62;100.00;94906.19;5006663;28;20034;-78
2023/10/16 05:19:54;;;;;;;6.47;5.88;;;;;;;9.71;100.00;94951.72;4960364;29;20745;-78
2023/10/16 06:14:20;;;;;;;10.70;5.05;;;;;;;10.45;98.00;95051.47;5019388;28;20053;-77
2023/10/16 06:16:55;;;;;;;8.98;4.95;;;;;;;10.44;97.57;95044.69;5018686;28;20034;-79
2023/10/16 06:19:24;;;;;;;14.82;5.10;;;;;;;10.54;97.31;95045.28;5008923;28;20101;-79
2023/10/16 06:22:06;;;;;;;5.97;4.78;;;;;;;10.52;96.36;95040.28;5006614;28;20053;-80
2023/10/16 06:24:44;;;;;;;6.95;4.40;;;;;;;10.80;95.35;95039.84;5008588;28;20068;-79
2023/10/16 06:27:10;;;;;;;7.97;4.93;;;;;;;10.79;95.26;95048.59;5016533;28;20026;-78
2023/10/16 06:29:40;;;;;;;6.88;5.10;;;;;;;10.75;95.68;95044.72;5018565;28;20062;-77
2023/10/16 06:32:18;;;;;;;5.28;4.57;;;;;;;10.68;95.14;95049.78;5003227;28;20026;-78
2023/10/16 06:34:45;;;;;;;6.40;4.25;;;;;;;10.63;94.68;95041.69;5003131;28;20046;-79
2023/10/16 06:37:16;;;;;;;5.03;4.50;;;;;;;10.56;95.05;95041.56;5004413;28;20030;-80
2023/10/16 06:39:58;;;;;;;7.57;4.43;;;;;;;10.71;93.92;95041.66;5006007;28;20026;-79
2023/10/16 06:42:24;;;;;;;5.03;4.55;;;;;;;10.61;92.58;95035.88;5007717;28;20037;-78
2023/10/16 06:44:53;;;;;;;6.72;4.18;;;;;;;10.48;94.00;95051.16;5023405;28;20066;-78
2023/10/16 06:47:23;;;;;;;;;;;;;;;10.81;92.60;95055.22;5020860;28;20036;-80
2023/10/16 06:49:49;;;;;;;10.43;4.15;;;;;;;11.53;88.89;95056.53;5006109;28;19928;-79
2023/10/16 06:52:17;;;;;;;9.07;4.15;;;;;;;11.05;89.05;95054.25;5008338;28;20049;-79
2023/10/16 06:54:44;;;;;;;9.80;4.03;;;;;;;10.65;90.39;95055.28;5029522;28;20082;-77
2023/10/16 06:57:12;;;;;;;8.95;4.03;;;;;;;10.53;90.90;95054.06;5002768;28;20033;-79
2023/10/16 06:59:42;;;;;;;5.28;3.70;;;;;;;11.11;88.33;95056.97;5023563;28;20014;-79
2023/10/16 07:02:19;;;;;;;7.25;3.50;;;;;;;11.10;87.73;95065.75;5003421;28;20065;-78
2023/10/16 07:04:45;;;;;;;4.97;3.20;;;;;;;11.36;86.15;95064.63;5006547;28;20037;-80
2023/10/16 07:07:15;;;;;;;6.95;3.50;;;;;;;11.48;84.68;95069.22;5007414;28;20025;-79
2023/10/16 07:09:49;;;;;;;;;;;;;;;11.82;82.14;95074.00;5019408;28;20058;-78
2023/10/16 07:12:18;;;;;;;3.95;2.92;;;;;;;12.43;78.54;95072.94;5019601;28;19918;-79
2023/10/16 07:15:01;;;;;;;6.10;3.20;;;;;;;12.09;78.09;95076.06;5021479;28;20038;-79
2023/10/16 07:17:28;;;;;;;6.40;3.47;;;;;;;12.19;77.11;95070.59;5008977;28;20038;-79
2023/10/16 07:19:59;;;;;;;5.07;2.50;;;;;;;13.87;69.33;95065.94;5010033;28;20072;-79
2023/10/16 07:22:31;;;;;;;5.43;2.97;;;;;;;12.98;69.75;95059.44;4989802;28;20038;-79
2023/10/16 07:25:02;;;;;;;4.20;3.05;;;;;;;12.45;71.81;95075.38;5014803;28;20038;-78
2023/10/16 07:27:30;;;;;;;4.75;2.92;;;;;;;12.92;71.42;95078.38;5014975;28;20014;-80
2023/10/16 07:29:56;;;;;;;5.07;2.80;;;;;;;15.03;62.49;95060.06;5006270;28;20026;-81
2023/10/16 07:32:21;;;;;;;11.48;2.80;;;;;;;15.75;58.19;95063.69;4984542;28;20498;-78
2023/10/16 07:34:47;;;;;;;8.82;2.80;;;;;;;15.76;57.78;95060.06;5002355;28;20503;-85
2023/10/16 07:37:13;;;;;;;5.43;2.75;;;;;;;15.64;56.74;95059.06;4983645;28;20072;-84
2023/10/16 07:39:39;;;;;;;8.52;3.05;;;;;;;17.34;52.68;95060.56;4984330;28;20124;-88
2023/10/16 07:42:04;;;;;;;4.95;2.35;;;;;;;20.55;43.92;95057.25;5001884;28;20493;-85
2023/10/16 07:44:29;;;;;;;4.95;2.33;;;;;;;21.51;41.03;95045.00;5002372;28;20428;-80
2023/10/16 07:46:55;;;;;;;6.80;1.85;;;;;;;22.25;38.62;95043.13;5001348;28;20030;-81
2023/10/16 07:49:25;;;;;;;5.00;2.10;;;;;;;22.51;37.20;95050.38;4984277;28;20030;-81
2023/10/16 07:51:52;;;;;;;4.13;1.70;;;;;;;23.07;36.27;95046.69;5001334;28;20029;-80
2023/10/16 07:54:20;;;;;;;3.65;1.50;;;;;;;22.14;36.92;95057.22;5001743;28;20038;-80
2023/10/16 07:56:46;;;;;;;5.65;1.67;;;;;;;22.03;37.28;95055.44;5001358;28;20037;-78
2023/10/16 07:59:18;;;;;;;7.55;1.70;;;;;;;22.30;36.87;95050.31;5001229;28;20113;-78
2023/10/16 08:01:54;;;;;;;6.80;1.80;;;;;;;22.44;35.81;95054.25;4985324;28;20038;-79
2023/10/16 08:06:53;;;;;;;6.38;1.23;;;;;;;22.50;35.07;95051.44;5001358;28;20026;-78
2023/10/16 08:11:57;;;;;;;2.28;1.60;;;;;;;22.44;34.79;95047.09;4983778;28;20101;-77
2023/10/16 08:14:27;;;;;;;3.67;1.50;;;;;;;22.76;34.55;95049.19;4985333;28;20507;-85
2023/10/16 08:17:04;;;;;;;3.25;1.27;;;;;;;23.21;33.49;95055.06;4983051;28;20495;-79
2023/10/16 08:19:34;;;;;;;3.20;1.35;;;;;;;22.77;32.99;95056.84;4979430;28;20030;-77
2023/10/16 08:22:03;;;;;;;1.67;1.27;;;;;;;23.45;32.00;95052.97;4984236;28;20448;-78
2023/10/16 08:24:29;;;;;;;2.67;1.25;;;;;;;23.26;32.58;95054.31;4962042;28;20061;-78
2023/10/16 08:27:10;;;;;;;1.95;1.50;;;;;;;23.60;32.12;95061.84;4966854;28;20499;-79
2023/10/16 08:29:37;;;;;;;3.67;1.40;;;;;;;22.93;33.08;95056.00;5000264;28;20041;-80
2023/10/16 08:34:46;;;;;;;8.13;1.50;;;;;;;23.13;33.10;95050.19;5000859;28;20111;-80
2023/10/16 08:37:13;;;;;;;2.30;1.20;;;;;;;23.40;32.05;95064.31;4982891;28;20041;-80
2023/10/16 08:39:47;;;;;;;3.38;1.10;;;;;;;22.94;32.10;95060.25;5000657;28;20499;-81
2023/10/16 08:42:18;;;;;;;1.67;1.20;;;;;;;23.45;31.85;95059.06;4983493;28;20534;-81
2023/10/16 08:44:51;;;;;;;4.65;1.20;;;;;;;23.39;32.12;95064.50;4983544;28;20574;-82
2023/10/16 08:47:24;;;;;;;3.05;1.10;;;;;;;22.69;32.38;95059.94;5000712;28;20030;-82
2023/10/16 08:49:55;;;;;;;2.13;1.27;;;;;;;22.23;33.43;95050.47;4971061;28;20034;-79
2023/10/16 08:52:22;;;;;;;2.33;1.30;;;;;;;22.12;33.06;95059.28;4966892;28;20802;-83
2023/10/16 08:57:20;;;;;;;2.15;1.20;;;;;;;22.05;33.09;95056.00;5000669;28;20037;-82
2023/10/16 08:59:49;;;;;;;2.10;1.00;;;;;;;22.29;32.18;95054.81;4982654;28;20508;-85
2023/10/16 09:02:17;;;;;;;3.10;1.13;;;;;;;21.89;32.71;95052.31;4972241;28;20084;-80
2023/10/16 09:04:43;;;;;;;2.72;0.70;;;;;;;20.85;34.06;95048.16;4982318;28;20038;-78
2023/10/16 09:07:12;;;;;;;1.70;0.90;;;;;;;21.54;33.62;95044.53;4982953;28;20045;-82
2023/10/16 09:09:41;;;;;;;;;;;;;;;21.13;34.43;95050.06;5000811;28;20083;-81
2023/10/16 09:12:10;;;;;;;4.35;1.20;;;;;;;21.04;34.11;95062.78;4982478;28;20374;-80
2023/10/16 09:14:38;;;;;;;3.72;1.10;;;;;;;20.84;34.58;95056.28;5000171;28;20026;-83
2023/10/16 09:17:06;;;;;;;4.75;1.00;;;;;;;20.40;34.75;95061.13;4999799;28;20107;-78
2023/10/16 09:19:35;;;;;;;0.85;0.70;;;;;;;20.57;34.57;95060.44;4983101;28;20522;-83
2023/10/16 09:22:04;;;;;;;3.55;1.00;;;;;;;20.66;34.37;95054.59;4963128;28;20404;-76
2023/10/16 09:24:33;;;;;;;2.28;0.95;;;;;;;20.63;34.77;95055.06;4993840;28;20607;-80
2023/10/16 09:26:59;;;;;;;3.50;1.13;;;;;;;20.55;34.69;95054.59;4976663;28;20422;-83
2023/10/16 09:29:26;;;;;;;1.70;1.10;;;;;;;19.34;36.35;95049.72;5000015;28;20026;-80
2023/10/16 09:31:52;;;;;;;2.15;1.00;;;;;;;19.98;36.16;95051.66;4998017;28;20037;-79
2023/10/16 09:34:25;;;;;;;5.88;1.33;;;;;;;20.09;35.41;95050.09;4991677;28;20408;-81
2023/10/16 09:39:36;;;;;;;4.28;0.90;;;;;;;19.04;36.92;95043.66;4985279;28;20121;-82
2023/10/16 09:42:11;;;;;;;2.30;0.80;;;;;;;19.78;35.96;95048.53;4981670;28;20026;-81
2023/10/16 09:44:39;;;;;;;2.80;0.93;;;;;;;20.23;34.63;95040.94;4982336;28;20026;-80
2023/10/16 09:49:59;;;;;;;7.18;1.13;;;;;;;20.70;34.02;95037.31;4984937;28;20057;-79
2023/10/16 09:52:25;;;;;;;2.30;1.00;;;;;;;20.67;34.17;95027.25;4981471;28;20553;-80
2023/10/16 09:54:52;;;;;;;9.70;1.38;;;;;;;20.22;34.44;95027.00;4999720;28;20515;-80
2023/10/16 09:57:27;;;;;;;3.15;1.17;;;;;;;20.43;35.08;95036.16;4981360;28;20478;-84
2023/10/16 10:03:07;;;;;;;4.63;1.20;;;;;;;19.45;35.64;95017.47;4984906;28;20471;-86
2023/10/16 10:05:48;;;;;;;2.50;1.10;;;;;;;19.30;35.80;95004.72;4981866;28;20151;-84
2023/10/16 10:08:27;;;;;;;11.80;1.27;;;;;;;18.02;37.09;95000.47;4966844;28;20487;-82
2023/10/16 10:13:35;;;;;;;2.28;1.23;;;;;;;18.94;36.20;95008.19;4986190;28;20026;-91
2023/10/16 10:16:14;;;;;;;5.50;1.17;;;;;;;18.26;36.80;94998.84;4966140;28;20459;-85
2023/10/16 10:18:47;;;;;;;;;;;;;;;18.12;37.40;95003.41;4953573;28;20168;-88
2023/10/16 10:21:18;;;;;;;2.72;1.20;;;;;;;17.90;38.06;95000.38;4981340;28;19951;-87
2023/10/16 10:23:48;;;;;;;6.80;1.60;;;;;;;17.69;38.42;95000.72;4999330;28;20033;-87
2023/10/16 10:26:20;;;;;;;3.97;1.48;;;;;;;17.30;39.15;95006.22;4981091;28;20036;-81
2023/10/16 10:29:04;;;;;;;1.90;1.30;;;;;;;18.20;37.54;95008.41;4968960;28;20049;-90
2023/10/16 10:31:31;;;;;;;1.33;0.98;;;;;;;18.51;36.27;94997.00;4998890;28;20105;-87
2023/10/16 10:33:58;;;;;;;4.65;1.30;;;;;;;18.56;37.32;94991.13;4999000;28;20033;-91
2023/10/16 10:36:32;;;;;;;1.85;1.00;;;;;;;18.63;37.08;94990.00;4992850;28;20042;-90
2023/10/16 10:39:24;;;;;;;1.77;1.00;;;;;;;18.63;36.70;94986.56;4999303;28;20026;-89
2023/10/16 10:41:54;;;;;;;2.72;1.17;;;;;;;18.57;37.41;94988.25;4996677;28;20083;-84
2023/10/16 10:44:29;;;;;;;3.28;0.90;;;;;;;18.06;36.48;94974.63;4998496;28;20890;-87
2023/10/16 10:46:55;;;;;;;2.95;0.82;;;;;;;18.24;35.02;94980.69;4999312;28;20132;-89
2023/10/16 10:49:33;;;;;;;1.35;0.90;;;;;;;18.39;35.93;94980.38;4953011;28;20030;-89
2023/10/16 10:52:01;;;;;;;4.65;1.27;;;;;;;18.13;36.87;94976.19;4963545;28;20041;-89
2023/10/16 10:54:26;;;;;;;5.72;1.08;;;;;;;18.36;36.97;94951.94;4998875;28;20450;-93
2023/10/16 10:56:53;;;;;;;3.33;1.02;;;;;;;18.02;36.00;94960.34;4980974;28;20034;-91
2023/10/16 10:59:40;;;;;;;1.67;0.80;;;;;;;17.74;36.21;94969.47;4986073;28;20034;-88
2023/10/16 11:04:42;;;;;;;1.88;1.20;;;;;;;17.68;37.37;94967.72;4988768;28;20033;-87
2023/10/16 11:07:23;;;;;;;2.08;1.02;;;;;;;17.80;37.21;94965.19;5005271;28;20500;-81
2023/10/16 11:09:49;;;;;;;3.15;1.00;;;;;;;17.42;37.77;94948.75;4989503;28;20029;-91
2023/10/16 11:12:15;;;;;;;2.00;1.00;;;;;;;17.76;37.59;94966.63;4988032;28;20116;-86
2023/10/16 11:14:40;;;;;;;2.10;1.15;;;;;;;17.48;38.04;94971.44;4987274;28;20099;-89
2023/10/16 11:17:06;;;;;;;4.32;1.02;;;;;;;17.60;37.45;94973.19;5006710;28;20042;-91
2023/10/16 11:19:49;;;;;;;1.88;1.02;;;;;;;17.36;37.11;94958.25;5005285;28;20403;-90
2023/10/16 11:22:21;;;;;;;1.35;1.15;;;;;;;17.59;37.69;94965.56;4987921;28;20058;-88
2023/10/16 11:24:47;;;;;;;5.88;1.27;;;;;;;17.31;38.19;94958.88;4987314;28;20037;-85
2023/10/16 11:27:13;;;;;;;3.17;1.60;;;;;;;17.60;37.91;94960.09;4986862;28;20036;-88
2023/10/16 11:29:40;;;;;;;2.80;1.23;;;;;;;17.42;38.01;94964.44;4968822;28;20056;-86
2023/10/16 11:32:06;;;;;;;3.65;1.70;;;;;;;17.51;37.87;94968.41;5004815;28;20061;-92
2023/10/16 11:34:45;;;;;;;1.33;0.98;;;;;;;17.54;37.11;94960.13;5005633;28;20034;-88
2023/10/16 11:37:15;;;;;;;3.88;0.90;;;;;;;17.64;36.13;94955.25;4987704;28;20057;-90
2023/10/16 11:39:44;;;;;;;2.65;1.15;;;;;;;17.50;35.66;94969.44;5000401;28;20462;-93
2023/10/16 11:42:09;;;;;;;1.27;0.80;;;;;;;17.53;36.22;94955.91;4989311;28;20026;-90
2023/10/16 11:44:37;;;;;;;3.42;1.13;;;;;;;17.58;36.02;94950.88;4998830;28;20572;-87
2023/10/16 11:47:07;;;;;;;1.95;0.98;;;;;;;17.65;36.00;94959.47;4982169;28;20083;-92
2023/10/16 11:49:37;;;;;;;2.38;0.90;;;;;;;17.52;35.72;94956.94;4988299;28;20076;-91
2023/10/16 11:52:27;;;;;;;3.30;0.90;;;;;;;17.52;35.70;94956.94;4987816;28;20402;-89
2023/10/16 11:54:56;;;;;;;2.05;1.00;;;;;;;17.31;35.38;94958.88;4990376;28;20048;-91
2023/10/16 11:57:25;;;;;;;2.45;0.95;;;;;;;16.92;34.97;94953.88;4986998;28;20029;-92
2023/10/16 11:59:51;;;;;;;4.40;1.02;;;;;;;17.31;35.40;94952.81;4988314;28;20119;-86
2023/10/16 12:02:21;;;;;;;3.60;1.00;;;;;;;17.63;35.49;94961.50;4987269;28;20037;-86
2023/10/16 12:04:47;;;;;;;2.55;0.80;;;;;;;17.33;34.92;94954.25;4988648;28;20121;-92
2023/10/16 12:07:13;;;;;;;1.35;0.90;;;;;;;17.16;34.66;94955.75;5005060;28;20400;-93
2023/10/16 12:09:47;;;;;;;1.90;0.90;;;;;;;17.14;35.11;94943.91;4986644;28;20036;-85
2023/10/16 12:12:19;;;;;;;2.88;1.15;;;;;;;17.20;35.83;94946.47;4985338;28;20033;-89
2023/10/16 12:14:48;;;;;;;1.83;1.02;;;;;;;17.07;36.47;94938.72;5001246;28;20030;-89
2023/10/16 12:17:15;;;;;;;2.15;1.23;;;;;;;17.08;37.35;94949.97;4990388;28;20062;-88
2023/10/16 12:19:40;;;;;;;8.73;0.93;;;;;;;17.09;36.15;94955.00;4983465;28;20273;-88
2023/10/16 12:22:08;;;;;;;1.40;0.77;;;;;;;16.98;35.62;94953.06;4984671;28;20414;-92
2023/10/16 12:24:34;;;;;;;1.73;0.85;;;;;;;16.91;35.45;94947.06;4984794;28;20022;-90
2023/10/16 12:27:01;;;;;;;3.88;0.95;;;;;;;17.07;35.20;94956.22;4983109;28;20022;-92
2023/10/16 12:29:27;;;;;;;3.95;1.08;;;;;;;17.14;34.72;94955.19;4984311;28;20563;-92
2023/10/16 12:31:54;;;;;;;1.35;0.80;;;;;;;16.92;35.58;94953.09;4984207;28;20396;-92
2023/10/16 12:34:22;;;;;;;2.63;1.42;;;;;;;16.73;35.65;94960.81;5002486;28;20060;-92
2023/10/16 12:36:49;;;;;;;1.65;1.30;;;;;;;16.55;36.12;94952.03;5002211;28;20120;-88
2023/10/16 12:39:24;;;;;;;1.98;1.40;;;;;;;16.39;36.39;94957.69;5004586;28;20037;-89
2023/10/16 12:41:55;;;;;;;4.70;1.60;;;;;;;16.60;36.70;94953.00;5028102;28;20432;-88
2023/10/16 12:44:24;;;;;;;3.47;1.38;;;;;;;16.12;36.60;94942.09;5101612;22;20044;-85
2023/10/16 12:46:52;;;;;;;4.53;1.80;;;;;;;16.10;36.87;94951.13;5005294;28;20037;-85
2023/10/16 12:49:17;;;;;;;1.83;1.30;;;;;;;15.90;37.03;94945.94;5044581;28;20033;-84
2023/10/16 12:51:43;;;;;;;6.65;1.65;;;;;;;15.65;36.58;94930.09;5020202;28;20036;-90
2023/10/16 12:54:12;;;;;;;3.13;1.38;;;;;;;15.78;36.85;94942.34;5010109;28;20029;-92
2023/10/16 12:56:40;;;;;;;2.35;1.30;;;;;;;15.62;36.86;94945.38;5044026;28;20592;-86
2023/10/16 12:59:08;;;;;;;1.67;1.40;;;;;;;15.65;36.69;94930.09;5044651;28;20427;-88
2023/10/16 13:01:33;;;;;;;2.95;1.23;;;;;;;15.30;36.56;94931.28;5036561;28;20035;-83
2023/10/16 13:04:03;;;;;;;1.77;1.40;;;;;;;15.32;36.33;94944.94;5022177;28;20025;-83
2023/10/16 13:06:30;;;;;;;3.63;1.50;;;;;;;15.31;36.44;94945.94;5031176;28;20443;-77
2023/10/16 13:08:56;;;;;;;1.83;1.30;;;;;;;15.44;36.23;94942.53;5028336;28;20026;-79
2023/10/16 13:11:22;;;;;;;3.55;1.42;;;;;;;15.83;36.31;94937.31;5020619;28;20407;-89
2023/10/16 13:13:47;;;;;;;4.30;1.35;;;;;;;15.56;35.70;94943.56;4989849;28;20042;-87
2023/10/16 13:16:24;;;;;;;2.33;1.20;;;;;;;15.45;36.25;94931.88;5024065;28;20029;-80
2023/10/16 13:18:59;;;;;;;3.70;1.70;;;;;;;15.36;36.03;94946.16;5026687;28;20037;-84
2023/10/16 13:21:34;;;;;;;2.92;1.52;;;;;;;15.25;35.77;94950.13;5021787;28;20009;-84
2023/10/16 13:24:09;;;;;;;8.23;1.33;;;;;;;15.17;35.88;94952.94;5030410;28;20025;-78
2023/10/16 13:26:37;;;;;;;4.47;1.60;;;;;;;15.12;35.95;94957.94;5025081;28;20103;-85
2023/10/16 13:29:11;;;;;;;4.05;1.65;;;;;;;14.92;35.44;94962.34;5031398;28;19997;-78
2023/10/16 13:31:46;;;;;;;2.72;1.50;;;;;;;15.04;35.75;94962.56;5046679;28;20045;-83
2023/10/16 13:34:13;;;;;;;4.65;1.70;;;;;;;14.91;35.72;94952.09;5030932;28;20029;-83
2023/10/16 13:37:08;;;;;;;3.35;1.65;;;;;;;15.02;35.50;94965.38;5026625;28;20036;-84
2023/10/16 13:39:38;;;;;;;1.45;1.20;;;;;;;15.02;35.48;94960.16;5019773;28;20065;-80
2023/10/16 13:42:08;;;;;;;3.47;1.30;;;;;;;14.84;35.85;94959.09;5036109;28;20041;-81